Time;durP1;ratioP1;P1;durP2;ratioP2;P2;SDS_P1;SDS_P2;PMS_P1;PMS_P2;Temp;Humidity;BMP_temperature;BMP_pressure;BME280_temperature;BME280_humidity;BME280_pressure;Samples;Min_cycle;Max_cycle;Signal;HPM_P1;HPM_P2
2022/12/01 00:01:04;;;;;;;78.40;20.83;;;;;;;;;;5091006;28;20024;-59
2022/12/01 00:03:30;;;;;;;67.88;19.92;;;;;;;;;;5069432;28;20040;-59
2022/12/01 00:06:09;;;;;;;84.88;21.02;;;;;;;;;;5070584;28;20082;-61
2022/12/01 00:08:34;;;;;;;76.68;21.38;;;;;;;;;;5069848;28;20043;-58
2022/12/01 00:11:08;;;;;;;79.30;22.42;;;;;;;;;;5067720;28;20025;-60
2022/12/01 00:13:34;;;;;;;73.40;20.05;;;;;;;;;;5063171;28;20430;-56
2022/12/01 00:16:14;;;;;;;69.60;21.25;;;;;;;;;;5068065;28;20545;-61
2022/12/01 00:18:40;;;;;;;69.50;20.35;;;;;;;;;;5070240;28;20040;-57
2022/12/01 00:21:12;;;;;;;86.28;21.02;;;;;;;;;;5066142;28;20032;-58
2022/12/01 00:23:37;;;;;;;73.00;22.08;;;;;;;;;;5071105;28;20028;-58
2022/12/01 00:26:04;;;;;;;76.65;21.05;;;;;;;;;;5069011;28;20067;-57
2022/12/01 00:28:29;;;;;;;79.38;20.85;;;;;;;;;;5071207;28;20341;-57
2022/12/01 00:30:55;;;;;;;78.32;21.92;;;;;;;;;;5069497;28;20028;-57
2022/12/01 00:33:20;;;;;;;74.00;20.38;;;;;;;;;;5069418;28;20036;-57
2022/12/01 00:35:45;;;;;;;82.13;21.98;;;;;;;;;;5068927;28;20112;-57
2022/12/01 00:38:11;;;;;;;81.15;23.17;;;;;;;;;;5057261;28;20044;-59
2022/12/01 00:40:36;;;;;;;75.57;21.33;;;;;;;;;;5067528;28;20164;-58
2022/12/01 00:43:01;;;;;;;93.82;22.40;;;;;;;;;;5069356;28;20036;-60
2022/12/01 00:45:27;;;;;;;78.88;20.83;;;;;;;;;;5068769;28;20036;-58
2022/12/01 00:47:52;;;;;;;89.57;21.42;;;;;;;;;;5071400;28;20032;-59
2022/12/01 00:50:18;;;;;;;100.97;20.80;;;;;;;;;;5068108;28;20646;-58
2022/12/01 00:52:43;;;;;;;84.25;21.42;;;;;;;;;;5070944;28;20037;-59
2022/12/01 00:55:08;;;;;;;73.40;20.20;;;;;;;;;;5068861;28;20080;-59
2022/12/01 00:57:34;;;;;;;72.88;21.00;;;;;;;;;;5052938;28;20040;-58
2022/12/01 00:59:59;;;;;;;71.97;21.77;;;;;;;;;;5069916;28;20456;-61
2022/12/01 01:02:24;;;;;;;79.25;19.95;;;;;;;;;;5050635;28;20541;-57
2022/12/01 01:04:50;;;;;;;74.13;20.17;;;;;;;;;;5052157;28;20085;-57
2022/12/01 01:07:15;;;;;;;78.65;20.17;;;;;;;;;;5060322;28;20059;-57
2022/12/01 01:09:41;;;;;;;73.90;20.75;;;;;;;;;;5063070;28;20119;-59
2022/12/01 01:12:06;;;;;;;74.60;20.80;;;;;;;;;;5065910;28;21974;-58
2022/12/01 01:14:31;;;;;;;82.53;21.05;;;;;;;;;;5068677;28;20052;-58
2022/12/01 01:16:57;;;;;;;90.90;21.30;;;;;;;;;;5069614;28;20060;-55
2022/12/01 01:19:23;;;;;;;81.15;21.58;;;;;;;;;;5055014;28;20029;-58
2022/12/01 01:21:48;;;;;;;80.28;21.40;;;;;;;;;;5068734;28;20036;-57
2022/12/01 01:24:14;;;;;;;88.97;21.77;;;;;;;;;;5051692;28;20036;-58
2022/12/01 01:26:39;;;;;;;77.47;20.90;;;;;;;;;;5070409;28;20444;-58
2022/12/01 01:29:06;;;;;;;80.38;20.80;;;;;;;;;;5071871;28;20146;-61
2022/12/01 01:31:32;;;;;;;68.70;20.30;;;;;;;;;;5072620;28;20508;-58
2022/12/01 01:33:58;;;;;;;71.18;19.90;;;;;;;;;;5073357;28;20119;-57
2022/12/01 01:36:24;;;;;;;69.20;19.67;;;;;;;;;;5070180;28;20686;-58
2022/12/01 01:38:52;;;;;;;58.17;19.10;;;;;;;;;;5073234;28;20029;-58
2022/12/01 01:41:18;;;;;;;62.08;18.70;;;;;;;;;;5071829;28;20040;-58
2022/12/01 01:44:01;;;;;;;54.20;17.38;;;;;;;;;;5055576;28;20036;-57
2022/12/01 01:46:32;;;;;;;60.30;17.60;;;;;;;;;;5084639;28;20115;-58
2022/12/01 01:49:04;;;;;;;59.20;18.60;;;;;;;;;;5073573;28;20086;-59
2022/12/01 01:51:35;;;;;;;53.08;16.50;;;;;;;;;;5071440;28;20032;-57
2022/12/01 01:54:06;;;;;;;56.92;18.35;;;;;;;;;;5072057;28;20025;-57
2022/12/01 01:56:35;;;;;;;59.88;17.15;;;;;;;;;;5072888;28;20473;-57
2022/12/01 01:59:00;;;;;;;57.10;17.98;;;;;;;;;;5071721;28;20044;-57
2022/12/01 02:01:26;;;;;;;54.58;18.13;;;;;;;;;;5068636;28;21338;-58
2022/12/01 02:03:53;;;;;;;46.75;17.10;;;;;;;;;;5072322;28;20435;-59
2022/12/01 02:06:19;;;;;;;51.15;16.38;;;;;;;;;;5069283;28;20388;-57
2022/12/01 02:08:45;;;;;;;49.60;17.20;;;;;;;;;;5071923;28;20135;-57
2022/12/01 02:11:47;;;;;;;47.47;15.93;;;;;;;;;;5071078;28;20020;-59
2022/12/01 02:14:24;;;;;;;49.78;15.95;;;;;;;;;;5070397;28;20044;-58
2022/12/01 02:16:56;;;;;;;47.67;15.90;;;;;;;;;;5071532;28;20033;-58
2022/12/01 02:19:43;;;;;;;42.55;14.82;;;;;;;;;;5065262;28;20393;-57
2022/12/01 02:22:41;;;;;;;41.22;15.02;;;;;;;;;;5068215;28;20032;-60
2022/12/01 02:25:09;;;;;;;44.90;15.32;;;;;;;;;;5053324;28;20094;-59
2022/12/01 02:27:53;;;;;;;44.13;15.00;;;;;;;;;;5054670;28;20033;-58
2022/12/01 02:30:36;;;;;;;46.83;16.63;;;;;;;;;;5071225;28;20085;-57
2022/12/01 02:33:14;;;;;;;40.50;14.20;;;;;;;;;;5072684;28;20037;-59
2022/12/01 02:35:43;;;;;;;43.45;15.25;;;;;;;;;;5070864;28;20028;-59
2022/12/01 02:38:20;;;;;;;48.20;16.00;;;;;;;;;;5070430;28;20028;-59
2022/12/01 02:40:54;;;;;;;46.45;16.00;;;;;;;;;;5064850;28;20042;-59
2022/12/01 02:43:49;;;;;;;45.05;15.15;;;;;;;;;;5052636;28;20074;-58
2022/12/01 02:46:21;;;;;;;38.72;14.63;;;;;;;;;;5070758;28;20036;-58
2022/12/01 02:48:50;;;;;;;43.95;14.70;;;;;;;;;;5070186;28;20040;-57
2022/12/01 02:51:22;;;;;;;44.45;15.15;;;;;;;;;;5070034;28;20035;-59
2022/12/01 02:53:48;;;;;;;38.63;14.68;;;;;;;;;;5071596;28;20036;-59
2022/12/01 02:56:19;;;;;;;37.58;14.65;;;;;;;;;;5073965;28;20127;-57
2022/12/01 02:58:44;;;;;;;41.10;14.43;;;;;;;;;;5071725;28;20037;-58
2022/12/01 03:01:24;;;;;;;38.83;14.52;;;;;;;;;;5070852;28;20032;-58
2022/12/01 03:04:23;;;;;;;36.97;14.60;;;;;;;;;;5069358;28;20040;-57
2022/12/01 03:07:06;;;;;;;35.58;15.40;;;;;;;;;;5053377;28;20029;-56
2022/12/01 03:10:06;;;;;;;41.25;15.80;;;;;;;;;;5068448;28;20778;-55
2022/12/01 03:12:56;;;;;;;42.08;15.20;;;;;;;;;;5067270;28;20045;-57
2022/12/01 03:15:38;;;;;;;40.72;14.50;;;;;;;;;;5052122;28;20085;-59
2022/12/01 03:18:14;;;;;;;32.05;13.95;;;;;;;;;;5069674;28;20032;-56
2022/12/01 03:20:47;;;;;;;37.33;14.20;;;;;;;;;;5069538;28;20522;-60
2022/12/01 03:23:22;;;;;;;38.42;14.90;;;;;;;;;;5069409;28;20040;-58
2022/12/01 03:25:52;;;;;;;39.17;15.13;;;;;;;;;;5051596;28;20028;-60
2022/12/01 03:28:22;;;;;;;38.63;15.02;;;;;;;;;;5051278;28;20025;-59
2022/12/01 03:30:51;;;;;;;42.60;15.40;;;;;;;;;;5036196;28;20033;-59
2022/12/01 03:33:25;;;;;;;39.88;14.63;;;;;;;;;;5057189;28;20054;-58
2022/12/01 03:36:02;;;;;;;35.95;15.38;;;;;;;;;;5051915;28;20044;-59
2022/12/01 03:38:29;;;;;;;38.28;14.75;;;;;;;;;;5070365;28;20093;-59
2022/12/01 03:41:00;;;;;;;34.63;14.52;;;;;;;;;;5069298;28;20025;-58
2022/12/01 03:43:31;;;;;;;37.13;14.77;;;;;;;;;;5070000;28;20028;-56
2022/12/01 03:46:02;;;;;;;;;;;;;;;;;;5066740;28;20079;-60
2022/12/01 03:48:29;;;;;;;36.55;14.77;;;;;;;;;;5054368;28;20461;-58
2022/12/01 03:51:12;;;;;;;32.33;13.82;;;;;;;;;;5048725;28;20386;-59
2022/12/01 03:53:58;;;;;;;41.13;15.52;;;;;;;;;;5070677;28;20098;-57
2022/12/01 03:56:29;;;;;;;40.47;15.23;;;;;;;;;;5066552;28;20047;-58
2022/12/01 03:58:56;;;;;;;43.38;15.80;;;;;;;;;;5071130;28;20032;-59
2022/12/01 04:01:22;;;;;;;41.58;16.23;;;;;;;;;;5070003;28;20075;-59
2022/12/01 04:03:48;;;;;;;41.40;15.60;;;;;;;;;;5069736;28;20044;-57
2022/12/01 04:06:14;;;;;;;35.88;14.77;;;;;;;;;;5051669;28;20060;-59
2022/12/01 04:08:39;;;;;;;39.22;15.32;;;;;;;;;;5069348;28;20119;-57
2022/12/01 04:12:28;;;;;;;35.92;14.77;;;;;;;;;;5052661;28;20076;-58
2022/12/01 04:13:50;;;;;;;36.90;14.88;;;;;;;;;;5067052;28;20465;-60
2022/12/01 04:16:16;;;;;;;37.13;15.23;;;;;;;;;;5069116;28;20031;-59
2022/12/01 04:18:41;;;;;;;34.67;14.95;;;;;;;;;;5069289;28;20108;-57
2022/12/01 04:21:07;;;;;;;32.28;14.27;;;;;;;;;;5066214;28;20477;-57
2022/12/01 04:26:15;;;;;;;39.53;15.57;;;;;;;;;;5068070;28;20448;-58
2022/12/01 04:28:41;;;;;;;34.70;13.82;;;;;;;;;;5070510;28;20063;-58
2022/12/01 04:31:06;;;;;;;33.60;13.80;;;;;;;;;;5065766;28;20052;-57
2022/12/01 04:33:32;;;;;;;35.63;13.60;;;;;;;;;;5050900;28;20029;-59
2022/12/01 04:35:58;;;;;;;32.50;13.80;;;;;;;;;;5070166;28;20115;-59
2022/12/01 04:38:24;;;;;;;35.67;14.88;;;;;;;;;;5067123;28;20024;-61
2022/12/01 04:40:50;;;;;;;35.22;15.02;;;;;;;;;;5069191;28;20041;-57
2022/12/01 04:43:15;;;;;;;35.03;14.50;;;;;;;;;;5069270;28;20081;-58
2022/12/01 04:45:41;;;;;;;38.35;14.07;;;;;;;;;;5051773;28;20165;-57
2022/12/01 04:48:06;;;;;;;34.17;13.75;;;;;;;;;;5069139;28;20028;-58
2022/12/01 04:50:31;;;;;;;35.03;14.30;;;;;;;;;;5067405;28;20073;-57
2022/12/01 04:52:57;;;;;;;35.78;15.00;;;;;;;;;;5068685;28;20040;-58
2022/12/01 04:55:24;;;;;;;40.13;16.00;;;;;;;;;;5069011;28;20055;-58
2022/12/01 04:57:49;;;;;;;38.58;16.42;;;;;;;;;;5069915;28;20044;-57
2022/12/01 05:00:15;;;;;;;37.63;15.05;;;;;;;;;;5069246;28;20032;-57
2022/12/01 05:02:43;;;;;;;36.83;15.65;;;;;;;;;;5071892;28;20029;-57
2022/12/01 05:05:10;;;;;;;37.25;14.98;;;;;;;;;;5073395;28;20033;-58
2022/12/01 05:07:35;;;;;;;37.60;15.13;;;;;;;;;;5070509;28;20033;-56
2022/12/01 05:10:01;;;;;;;36.03;15.07;;;;;;;;;;5054397;28;20388;-58
2022/12/01 05:12:26;;;;;;;40.78;15.77;;;;;;;;;;5072742;28;20130;-57
2022/12/01 05:14:52;;;;;;;39.20;14.40;;;;;;;;;;5072570;28;20037;-58
2022/12/01 05:17:17;;;;;;;40.10;15.65;;;;;;;;;;5070711;28;20381;-57
2022/12/01 05:22:27;;;;;;;41.17;16.27;;;;;;;;;;5069855;28;20099;-60
2022/12/01 05:24:52;;;;;;;41.08;15.75;;;;;;;;;;5072915;28;20029;-57
2022/12/01 05:27:17;;;;;;;38.33;15.55;;;;;;;;;;5071913;28;20036;-58
2022/12/01 05:29:43;;;;;;;40.00;16.38;;;;;;;;;;5071143;28;20086;-57
2022/12/01 05:32:08;;;;;;;42.30;15.55;;;;;;;;;;5072215;28;20432;-58
2022/12/01 05:34:34;;;;;;;43.03;16.85;;;;;;;;;;5058564;28;20052;-58
2022/12/01 05:36:59;;;;;;;43.70;16.33;;;;;;;;;;5076894;28;20028;-58
2022/12/01 05:39:24;;;;;;;45.22;16.58;;;;;;;;;;5083946;28;20055;-58
2022/12/01 05:41:50;;;;;;;44.80;17.27;;;;;;;;;;5074413;28;20162;-58
2022/12/01 05:44:15;;;;;;;43.25;16.98;;;;;;;;;;5073547;28;20125;-58
2022/12/01 05:46:40;;;;;;;44.50;16.80;;;;;;;;;;5074027;28;20043;-59
2022/12/01 05:49:06;;;;;;;50.92;17.65;;;;;;;;;;5077345;28;20437;-61
2022/12/01 05:51:31;;;;;;;51.75;17.85;;;;;;;;;;5090417;28;20081;-59
2022/12/01 05:54:00;;;;;;;49.80;18.77;;;;;;;;;;5074155;28;20029;-59
2022/12/01 05:56:26;;;;;;;56.30;19.17;;;;;;;;;;5071809;28;20131;-57
2022/12/01 05:58:51;;;;;;;53.65;19.73;;;;;;;;;;5074115;28;20417;-59
2022/12/01 06:01:16;;;;;;;56.65;19.20;;;;;;;;;;5072559;28;20422;-56
2022/12/01 06:03:42;;;;;;;52.92;19.02;;;;;;;;;;5074056;28;20085;-57
2022/12/01 06:06:08;;;;;;;57.95;20.92;;;;;;;;;;5068798;28;20366;-57
2022/12/01 06:08:33;;;;;;;56.08;19.90;;;;;;;;;;5072098;28;20036;-58
2022/12/01 06:10:59;;;;;;;55.63;19.65;;;;;;;;;;5072140;28;20457;-57
2022/12/01 06:13:25;;;;;;;57.30;20.13;;;;;;;;;;5071097;28;20044;-58
2022/12/01 06:16:02;;;;;;;54.38;19.92;;;;;;;;;;5073378;28;20036;-57
2022/12/01 06:18:33;;;;;;;53.22;19.95;;;;;;;;;;5072335;28;20420;-58
2022/12/01 06:20:59;;;;;;;56.80;21.02;;;;;;;;;;5073304;28;20047;-58
2022/12/01 06:23:25;;;;;;;57.17;20.08;;;;;;;;;;5072762;28;20389;-58
2022/12/01 06:25:50;;;;;;;61.15;20.33;;;;;;;;;;5072054;28;20025;-56
2022/12/01 06:28:15;;;;;;;50.20;18.73;;;;;;;;;;5070609;28;20482;-56
2022/12/01 06:30:41;;;;;;;58.30;19.48;;;;;;;;;;5053711;28;20040;-52
2022/12/01 06:33:07;;;;;;;57.35;19.60;;;;;;;;;;5051272;28;20810;-63
2022/12/01 06:35:32;;;;;;;54.00;18.85;;;;;;;;;;5069521;28;20083;-61
2022/12/01 06:37:57;;;;;;;51.78;18.40;;;;;;;;;;5073062;28;20033;-61
2022/12/01 06:40:23;;;;;;;51.40;19.63;;;;;;;;;;5071748;28;20461;-62
2022/12/01 06:42:48;;;;;;;54.35;19.70;;;;;;;;;;5055249;28;20150;-64
2022/12/01 06:45:14;;;;;;;56.13;19.45;;;;;;;;;;5069451;28;20028;-63
2022/12/01 06:47:39;;;;;;;52.35;19.40;;;;;;;;;;5072895;28;20071;-62
2022/12/01 06:50:07;;;;;;;52.83;19.02;;;;;;;;;;5070412;28;20492;-62
2022/12/01 06:52:35;;;;;;;53.03;18.85;;;;;;;;;;5070958;28;20937;-63
2022/12/01 06:55:02;;;;;;;49.33;18.67;;;;;;;;;;5070649;28;20052;-61
2022/12/01 06:57:28;;;;;;;47.67;17.27;;;;;;;;;;5052026;28;20477;-61
2022/12/01 06:59:54;;;;;;;54.25;18.65;;;;;;;;;;5070348;28;20037;-60
2022/12/01 07:02:19;;;;;;;55.63;18.95;;;;;;;;;;5052233;28;20488;-61
2022/12/01 07:04:45;;;;;;;55.70;19.33;;;;;;;;;;5071329;28;20028;-62
2022/12/01 07:07:11;;;;;;;49.28;17.48;;;;;;;;;;5072164;28;20502;-61
2022/12/01 07:09:36;;;;;;;51.90;18.58;;;;;;;;;;5058393;28;20039;-61
2022/12/01 07:12:02;;;;;;;45.72;19.20;;;;;;;;;;5060277;28;20032;-61
2022/12/01 07:14:27;;;;;;;49.13;17.83;;;;;;;;;;5071697;28;20025;-61
2022/12/01 07:16:53;;;;;;;48.50;17.85;;;;;;;;;;5052556;28;20042;-61
2022/12/01 07:19:18;;;;;;;49.25;18.75;;;;;;;;;;5067766;28;20054;-61
2022/12/01 07:21:44;;;;;;;48.40;19.05;;;;;;;;;;5072071;28;20028;-60
2022/12/01 07:24:11;;;;;;;61.47;19.60;;;;;;;;;;5070521;28;20031;-60
2022/12/01 07:26:37;;;;;;;50.67;18.27;;;;;;;;;;5066228;28;20036;-61
2022/12/01 07:29:02;;;;;;;46.78;18.63;;;;;;;;;;5070708;28;20024;-62
2022/12/01 07:31:28;;;;;;;43.60;18.52;;;;;;;;;;5071032;28;20028;-62
2022/12/01 07:33:53;;;;;;;52.10;18.58;;;;;;;;;;5069781;28;20032;-62
2022/12/01 07:36:18;;;;;;;54.05;19.02;;;;;;;;;;5070055;28;20045;-62
2022/12/01 07:38:44;;;;;;;49.28;18.85;;;;;;;;;;5071606;28;20078;-62
2022/12/01 07:41:12;;;;;;;46.67;17.05;;;;;;;;;;5071064;28;20476;-62
2022/12/01 07:43:38;;;;;;;43.35;17.30;;;;;;;;;;5070259;28;20029;-62
2022/12/01 07:46:15;;;;;;;50.08;18.08;;;;;;;;;;5071781;28;20373;-62
2022/12/01 07:48:41;;;;;;;49.70;19.30;;;;;;;;;;5069630;28;20044;-61
2022/12/01 07:51:09;;;;;;;46.75;18.15;;;;;;;;;;5069694;28;20409;-61
2022/12/01 07:53:35;;;;;;;49.53;18.17;;;;;;;;;;5069258;28;20109;-62
2022/12/01 07:56:01;;;;;;;44.95;16.98;;;;;;;;;;5070080;28;20083;-61
2022/12/01 07:58:26;;;;;;;47.95;17.60;;;;;;;;;;5070420;28;20033;-62
2022/12/01 08:00:52;;;;;;;46.88;18.30;;;;;;;;;;5071095;28;20040;-62
2022/12/01 08:03:18;;;;;;;46.28;18.17;;;;;;;;;;5070601;28;20082;-61
2022/12/01 08:05:44;;;;;;;53.42;17.58;;;;;;;;;;5036608;28;20052;-62
2022/12/01 08:08:10;;;;;;;46.55;18.38;;;;;;;;;;5051301;28;20029;-61
2022/12/01 08:10:35;;;;;;;40.22;15.88;;;;;;;;;;5065126;28;20108;-62
2022/12/01 08:13:01;;;;;;;40.03;16.77;;;;;;;;;;5052699;28;20462;-60
2022/12/01 08:15:26;;;;;;;43.47;17.50;;;;;;;;;;5070348;28;20071;-61
2022/12/01 08:17:51;;;;;;;45.40;17.27;;;;;;;;;;5069770;28;20116;-61
2022/12/01 08:20:17;;;;;;;45.97;17.20;;;;;;;;;;5069975;28;20453;-61
2022/12/01 08:22:42;;;;;;;40.80;16.33;;;;;;;;;;5070567;28;20108;-61
2022/12/01 08:25:08;;;;;;;43.50;16.42;;;;;;;;;;5070113;28;20036;-61
2022/12/01 08:27:34;;;;;;;44.97;17.58;;;;;;;;;;5069014;28;20653;-60
2022/12/01 08:30:00;;;;;;;40.40;16.40;;;;;;;;;;5064892;28;20438;-62
2022/12/01 08:32:25;;;;;;;43.85;17.23;;;;;;;;;;5070142;28;20115;-61
2022/12/01 08:34:50;;;;;;;44.90;16.65;;;;;;;;;;5069684;28;20040;-62
2022/12/01 08:37:16;;;;;;;43.95;17.02;;;;;;;;;;5069259;28;20043;-62
2022/12/01 08:39:41;;;;;;;45.00;17.35;;;;;;;;;;5073105;28;20039;-61
2022/12/01 08:42:06;;;;;;;42.47;16.60;;;;;;;;;;5075080;28;20506;-61
2022/12/01 08:44:32;;;;;;;40.67;15.85;;;;;;;;;;5073352;28;20063;-62
2022/12/01 08:46:57;;;;;;;48.95;16.73;;;;;;;;;;5073662;28;20036;-62
2022/12/01 08:49:23;;;;;;;43.00;16.52;;;;;;;;;;5053991;28;20039;-61
2022/12/01 08:51:48;;;;;;;48.58;16.55;;;;;;;;;;5073585;28;20464;-60
2022/12/01 08:54:14;;;;;;;47.42;17.33;;;;;;;;;;5072953;28;20044;-61
2022/12/01 08:56:41;;;;;;;49.17;15.20;;;;;;;;;;5072700;28;20051;-61
2022/12/01 08:59:08;;;;;;;39.92;15.38;;;;;;;;;;5073151;28;20036;-61
2022/12/01 09:01:34;;;;;;;40.60;15.68;;;;;;;;;;5072284;28;20104;-61
2022/12/01 09:04:04;;;;;;;39.25;15.75;;;;;;;;;;5074793;28;20020;-61
2022/12/01 09:06:31;;;;;;;45.72;16.98;;;;;;;;;;5055729;28;20041;-61
2022/12/01 09:08:59;;;;;;;40.28;16.27;;;;;;;;;;5072994;28;20116;-61
2022/12/01 09:11:25;;;;;;;39.10;15.38;;;;;;;;;;5073637;28;20115;-61
2022/12/01 09:13:50;;;;;;;35.13;14.32;;;;;;;;;;5072004;28;20040;-61
2022/12/01 09:16:17;;;;;;;36.00;13.65;;;;;;;;;;5072964;28;20036;-61
2022/12/01 09:18:44;;;;;;;38.47;14.50;;;;;;;;;;5072505;28;20020;-60
2022/12/01 09:21:18;;;;;;;33.95;14.05;;;;;;;;;;5056435;28;20115;-61
2022/12/01 09:23:44;;;;;;;34.95;13.88;;;;;;;;;;5073065;28;20039;-60
2022/12/01 09:26:17;;;;;;;35.35;13.45;;;;;;;;;;5056486;28;20028;-64
2022/12/01 09:28:46;;;;;;;32.65;13.32;;;;;;;;;;5070942;28;20044;-65
2022/12/01 09:31:13;;;;;;;31.10;13.35;;;;;;;;;;5074095;28;20075;-63
2022/12/01 09:33:38;;;;;;;32.22;14.20;;;;;;;;;;5072233;28;20028;-61
2022/12/01 09:36:06;;;;;;;35.08;14.13;;;;;;;;;;5073729;28;20040;-60
2022/12/01 09:38:33;;;;;;;37.08;15.20;;;;;;;;;;5054664;28;20563;-64
2022/12/01 09:41:04;;;;;;;30.75;13.80;;;;;;;;;;5074011;28;20484;-64
2022/12/01 09:43:40;;;;;;;33.10;14.52;;;;;;;;;;5070809;28;20955;-63
2022/12/01 09:46:17;;;;;;;33.60;14.07;;;;;;;;;;5054099;28;20036;-64
2022/12/01 09:48:45;;;;;;;32.15;13.95;;;;;;;;;;5061271;28;20049;-61
2022/12/01 09:51:18;;;;;;;32.97;14.32;;;;;;;;;;5067628;28;20083;-62
2022/12/01 09:53:44;;;;;;;35.03;15.30;;;;;;;;;;5064727;28;20503;-62
2022/12/01 09:56:19;;;;;;;33.08;14.82;;;;;;;;;;5055446;28;20048;-61
2022/12/01 09:58:47;;;;;;;36.90;15.30;;;;;;;;;;5073170;28;20407;-62
2022/12/01 10:01:17;;;;;;;32.00;14.65;;;;;;;;;;5055440;28;20455;-61
2022/12/01 10:03:50;;;;;;;35.17;16.00;;;;;;;;;;5070025;28;20431;-61
2022/12/01 10:06:19;;;;;;;33.88;15.90;;;;;;;;;;5072566;28;20076;-64
2022/12/01 10:09:15;;;;;;;39.83;15.60;;;;;;;;;;5072757;28;20032;-62
2022/12/01 10:11:43;;;;;;;34.75;15.23;;;;;;;;;;5072815;28;20044;-64
2022/12/01 10:14:16;;;;;;;34.10;16.52;;;;;;;;;;5073085;28;20060;-61
2022/12/01 10:17:05;;;;;;;33.78;16.23;;;;;;;;;;5054449;28;20147;-62
2022/12/01 10:19:43;;;;;;;36.10;16.50;;;;;;;;;;5071901;28;20499;-62
2022/12/01 10:22:28;;;;;;;34.97;15.82;;;;;;;;;;5072528;28;20033;-61
2022/12/01 10:25:13;;;;;;;35.50;16.58;;;;;;;;;;5073478;28;20034;-62
2022/12/01 10:27:57;;;;;;;36.53;17.27;;;;;;;;;;5071206;28;20035;-62
2022/12/01 10:30:23;;;;;;;34.95;17.55;;;;;;;;;;5070387;28;20170;-61
2022/12/01 10:32:52;;;;;;;39.22;17.95;;;;;;;;;;5072533;28;20108;-60
2022/12/01 10:35:23;;;;;;;38.47;18.33;;;;;;;;;;5050433;28;20053;-61
2022/12/01 10:37:59;;;;;;;;;;;;;;;;;;5073234;28;20029;-61
2022/12/01 10:40:26;;;;;;;38.60;18.02;;;;;;;;;;5070050;28;20292;-61
2022/12/01 10:42:52;;;;;;;38.22;18.70;;;;;;;;;;5072918;28;20032;-61
2022/12/01 10:45:22;;;;;;;43.13;19.27;;;;;;;;;;5070393;28;20031;-61
2022/12/01 10:48:14;;;;;;;49.45;20.80;;;;;;;;;;5072562;28;20037;-62
2022/12/01 10:50:43;;;;;;;49.60;20.60;;;;;;;;;;5071013;28;20086;-62
2022/12/01 10:53:27;;;;;;;48.42;20.95;;;;;;;;;;5071965;28;20074;-61
2022/12/01 10:56:27;;;;;;;49.33;21.35;;;;;;;;;;5069637;28;20049;-61
2022/12/01 10:58:56;;;;;;;53.47;22.65;;;;;;;;;;5066810;28;20112;-61
2022/12/01 11:01:33;;;;;;;49.38;21.80;;;;;;;;;;5053515;28;20040;-61
2022/12/01 11:04:19;;;;;;;47.45;21.95;;;;;;;;;;5053198;28;20035;-63
2022/12/01 11:06:49;;;;;;;48.15;21.40;;;;;;;;;;5071162;28;20037;-66
2022/12/01 11:09:24;;;;;;;48.45;21.55;;;;;;;;;;5072226;28;20107;-65
2022/12/01 11:12:02;;;;;;;47.97;21.02;;;;;;;;;;5068713;28;20477;-61
2022/12/01 11:14:46;;;;;;;47.42;21.13;;;;;;;;;;5071306;28;20469;-60
2022/12/01 11:17:34;;;;;;;48.35;21.85;;;;;;;;;;5071608;28;20036;-65
2022/12/01 11:20:36;;;;;;;53.28;22.60;;;;;;;;;;5071178;28;20378;-64
2022/12/01 11:23:17;;;;;;;49.00;21.98;;;;;;;;;;5069208;28;20469;-61
2022/12/01 11:25:56;;;;;;;48.83;21.67;;;;;;;;;;5072173;28;20530;-62
2022/12/01 11:28:21;;;;;;;51.08;21.52;;;;;;;;;;5069688;28;20040;-62
2022/12/01 11:30:55;;;;;;;51.33;21.67;;;;;;;;;;5071968;28;20082;-62
2022/12/01 11:33:20;;;;;;;50.88;22.40;;;;;;;;;;5070820;28;20036;-61
2022/12/01 11:35:48;;;;;;;50.70;22.02;;;;;;;;;;5053640;28;20469;-61
2022/12/01 11:38:22;;;;;;;51.83;21.73;;;;;;;;;;5069977;28;20024;-63
2022/12/01 11:40:51;;;;;;;55.15;22.70;;;;;;;;;;5072055;28;20165;-64
2022/12/01 11:43:34;;;;;;;51.20;22.95;;;;;;;;;;5069173;28;20051;-66
2022/12/01 11:46:08;;;;;;;54.08;24.25;;;;;;;;;;5071759;28;20108;-63
2022/12/01 11:48:35;;;;;;;57.75;24.05;;;;;;;;;;5068981;28;20115;-65
2022/12/01 11:51:18;;;;;;;54.40;22.50;;;;;;;;;;5071816;28;20079;-63
2022/12/01 11:53:44;;;;;;;52.92;22.90;;;;;;;;;;5068204;28;20037;-62
2022/12/01 11:56:27;;;;;;;51.80;23.58;;;;;;;;;;5070238;28;20587;-61
2022/12/01 11:59:23;;;;;;;56.15;23.98;;;;;;;;;;5067280;28;20048;-62
2022/12/01 12:01:55;;;;;;;55.00;24.00;;;;;;;;;;5042181;28;20036;-62
2022/12/01 12:04:24;;;;;;;55.58;23.15;;;;;;;;;;5070533;28;20039;-62
2022/12/01 12:07:02;;;;;;;56.25;24.00;;;;;;;;;;5068985;28;20116;-62
2022/12/01 12:09:27;;;;;;;51.95;23.48;;;;;;;;;;5050913;28;20384;-61
2022/12/01 12:11:55;;;;;;;51.75;22.98;;;;;;;;;;5069396;28;20033;-61
2022/12/01 12:14:21;;;;;;;51.28;23.60;;;;;;;;;;5051578;28;20123;-64
2022/12/01 12:16:51;;;;;;;55.90;26.00;;;;;;;;;;5070894;28;20100;-62
2022/12/01 12:20:04;;;;;;;54.38;24.35;;;;;;;;;;5070404;28;20446;-61
2022/12/01 12:22:35;;;;;;;51.83;23.23;;;;;;;;;;5027023;28;20384;-62
2022/12/01 12:25:07;;;;;;;;;;;;;;;;;;5066398;28;20039;-62
2022/12/01 12:27:32;;;;;;;;;;;;;;;;;;5070749;28;20011;-62
2022/12/01 12:30:09;;;;;;;57.03;23.45;;;;;;;;;;5052478;28;20006;-62
2022/12/01 12:32:40;;;;;;;55.78;23.65;;;;;;;;;;5050782;28;20361;-61
2022/12/01 12:35:06;;;;;;;;;;;;;;;;;;5069791;28;20064;-61
2022/12/01 12:37:49;;;;;;;56.00;23.15;;;;;;;;;;5070035;28;19958;-62
2022/12/01 12:40:44;;;;;;;60.95;23.98;;;;;;;;;;5070273;28;20032;-61
2022/12/01 12:43:35;;;;;;;57.85;24.23;;;;;;;;;;5063115;28;20041;-62
2022/12/01 12:46:11;;;;;;;53.28;24.92;;;;;;;;;;5070874;28;20166;-64
2022/12/01 12:49:01;;;;;;;56.35;24.52;;;;;;;;;;5069286;28;20040;-63
2022/12/01 12:51:32;;;;;;;59.25;24.85;;;;;;;;;;5067855;28;20032;-62
2022/12/01 12:54:25;;;;;;;57.22;24.10;;;;;;;;;;5050946;28;20059;-62
2022/12/01 12:56:57;;;;;;;61.33;24.88;;;;;;;;;;5071168;28;20040;-67
2022/12/01 12:59:38;;;;;;;57.17;23.50;;;;;;;;;;5052048;28;20457;-62
2022/12/01 13:02:15;;;;;;;60.07;26.37;;;;;;;;;;5069924;28;20079;-61
2022/12/01 13:05:21;;;;;;;63.40;26.45;;;;;;;;;;5052951;28;20100;-64
2022/12/01 13:08:07;;;;;;;66.97;26.10;;;;;;;;;;5012257;28;20074;-62
2022/12/01 13:10:45;;;;;;;62.05;25.38;;;;;;;;;;5070063;28;20449;-62
2022/12/01 13:13:34;;;;;;;60.13;25.67;;;;;;;;;;5070696;28;20044;-61
2022/12/01 13:16:02;;;;;;;65.95;26.67;;;;;;;;;;5070353;28;20028;-61
2022/12/01 13:18:38;;;;;;;57.42;26.00;;;;;;;;;;5069694;28;20041;-61
2022/12/01 13:21:04;;;;;;;62.08;25.65;;;;;;;;;;5065482;28;20423;-61
2022/12/01 13:23:32;;;;;;;65.28;27.73;;;;;;;;;;5067908;28;20459;-61
2022/12/01 13:26:00;;;;;;;59.70;25.60;;;;;;;;;;5073499;28;20059;-61
2022/12/01 13:28:33;;;;;;;63.25;26.13;;;;;;;;;;5073205;28;20400;-64
2022/12/01 13:31:02;;;;;;;60.70;25.65;;;;;;;;;;5054793;28;20041;-63
2022/12/01 13:33:28;;;;;;;58.55;24.63;;;;;;;;;;5068791;28;20138;-62
2022/12/01 13:35:55;;;;;;;59.70;25.80;;;;;;;;;;5073467;28;20112;-60
2022/12/01 13:38:23;;;;;;;60.53;25.13;;;;;;;;;;5073216;28;20028;-60
2022/12/01 13:41:08;;;;;;;60.20;24.60;;;;;;;;;;5073023;28;20031;-59
2022/12/01 13:43:35;;;;;;;60.03;26.25;;;;;;;;;;5051524;28;20528;-60
2022/12/01 13:46:01;;;;;;;58.38;25.60;;;;;;;;;;5078145;28;20025;-62
2022/12/01 13:48:48;;;;;;;61.67;25.80;;;;;;;;;;5070754;28;20033;-63
2022/12/01 13:51:14;;;;;;;60.92;26.65;;;;;;;;;;5074127;28;20025;-63
2022/12/01 13:54:25;;;;;;;59.50;26.25;;;;;;;;;;5071583;28;20032;-61
2022/12/01 13:57:02;;;;;;;58.25;25.48;;;;;;;;;;5073813;28;20051;-61
2022/12/01 14:00:00;;;;;;;53.08;24.92;;;;;;;;;;5068956;28;20086;-61
2022/12/01 14:02:28;;;;;;;56.95;25.95;;;;;;;;;;5070762;28;20083;-64
2022/12/01 14:04:53;;;;;;;52.60;25.52;;;;;;;;;;5073172;28;20033;-63
2022/12/01 14:07:34;;;;;;;57.72;25.73;;;;;;;;;;5071718;28;20484;-62
2022/12/01 14:10:30;;;;;;;58.15;25.75;;;;;;;;;;5071808;28;20530;-61
2022/12/01 14:13:04;;;;;;;56.95;24.95;;;;;;;;;;5052261;28;20040;-61
2022/12/01 14:15:41;;;;;;;58.72;24.75;;;;;;;;;;5071864;28;20130;-61
2022/12/01 14:18:32;;;;;;;60.13;26.42;;;;;;;;;;5054209;28;20139;-63
2022/12/01 14:20:59;;;;;;;56.95;24.88;;;;;;;;;;5073789;28;20024;-62
2022/12/01 14:23:35;;;;;;;54.90;25.23;;;;;;;;;;5071462;28;20032;-61
2022/12/01 14:26:21;;;;;;;51.05;24.33;;;;;;;;;;5073156;28;20419;-60
2022/12/01 14:28:58;;;;;;;53.95;25.60;;;;;;;;;;5072296;28;20036;-61
2022/12/01 14:32:01;;;;;;;51.50;23.55;;;;;;;;;;5069199;28;20119;-61
2022/12/01 14:34:35;;;;;;;55.08;24.52;;;;;;;;;;5051482;28;20037;-61
2022/12/01 14:37:10;;;;;;;51.42;24.13;;;;;;;;;;5062986;28;20085;-61
2022/12/01 14:39:39;;;;;;;51.78;24.05;;;;;;;;;;5071214;28;20040;-64
2022/12/01 14:42:10;;;;;;;53.97;25.17;;;;;;;;;;5071866;28;20114;-64
2022/12/01 14:44:52;;;;;;;47.97;23.35;;;;;;;;;;5071894;28;20642;-63
2022/12/01 14:47:56;;;;;;;56.33;26.10;;;;;;;;;;5070762;28;20036;-63